createdAt,value
2018-11-04T00:00:27.032Z,13.40
2018-11-04T00:02:55.096Z,14.27
2018-11-04T00:05:23.184Z,14.17
2018-11-04T00:07:52.009Z,14.63
2018-11-04T00:10:20.077Z,13.77
2018-11-04T00:12:48.165Z,15.20
2018-11-04T00:15:16.234Z,16.40
2018-11-04T00:17:44.417Z,14.40
2018-11-04T00:20:13.621Z,13.20
2018-11-04T00:22:41.696Z,13.23
2018-11-04T00:25:11.785Z,14.77
2018-11-04T00:27:39.954Z,14.70
2018-11-04T00:30:10.454Z,14.00
2018-11-04T00:32:38.621Z,14.57
2018-11-04T00:35:07.114Z,15.00
2018-11-04T00:37:35.197Z,13.87
2018-11-04T00:40:03.399Z,13.97
2018-11-04T00:42:31.552Z,15.57
2018-11-04T00:44:59.703Z,14.17
2018-11-04T00:47:28.147Z,15.50
2018-11-04T00:49:56.293Z,13.07
2018-11-04T00:52:24.392Z,13.70
2018-11-04T00:54:52.484Z,14.97
2018-11-04T00:57:20.565Z,15.33
2018-11-04T00:59:48.620Z,15.13
2018-11-04T01:02:16.714Z,14.37
2018-11-04T01:04:44.784Z,14.90
2018-11-04T01:07:12.874Z,15.63
2018-11-04T01:09:40.938Z,15.00
2018-11-04T01:12:09.041Z,14.73
2018-11-04T01:14:37.156Z,14.27
2018-11-04T01:17:05.248Z,13.73
2018-11-04T01:19:33.341Z,14.67
2018-11-04T01:22:01.450Z,14.43
2018-11-04T01:24:29.614Z,18.10
2018-11-04T01:26:57.842Z,15.60
2018-11-04T01:29:26.016Z,15.33
2018-11-04T01:31:54.100Z,14.60
2018-11-04T01:34:22.190Z,15.20
2018-11-04T01:36:50.384Z,14.30
2018-11-04T01:39:18.460Z,14.63
2018-11-04T01:41:46.577Z,14.70
2018-11-04T01:44:14.633Z,14.73
2018-11-04T01:46:43.008Z,15.50
2018-11-04T01:49:11.082Z,13.40
2018-11-04T01:51:39.188Z,15.67
2018-11-04T01:54:07.378Z,16.10
2018-11-04T01:56:35.621Z,15.37
2018-11-04T01:59:04.033Z,15.33
2018-11-04T02:01:32.184Z,15.63
2018-11-04T02:04:00.297Z,14.47
2018-11-04T02:06:28.472Z,13.00
2018-11-04T02:08:56.942Z,13.27
2018-11-04T02:11:25.053Z,14.90
2018-11-04T02:13:53.173Z,14.47
2018-11-04T02:16:21.261Z,13.80
2018-11-04T02:18:49.344Z,13.77
2018-11-04T02:21:17.476Z,14.40
2018-11-04T02:23:45.542Z,14.47
2018-11-04T02:26:13.604Z,13.80
2018-11-04T02:28:41.700Z,14.67
2018-11-04T02:31:09.777Z,12.77
2018-11-04T02:33:37.933Z,14.63
2018-11-04T02:36:06.333Z,14.90
2018-11-04T02:38:34.388Z,15.00
2018-11-04T02:41:02.510Z,16.30
2018-11-04T02:43:30.578Z,13.67
2018-11-04T02:45:58.819Z,14.23
2018-11-04T02:48:26.864Z,14.33
2018-11-04T02:50:54.937Z,13.07
2018-11-04T02:53:23.001Z,13.90
2018-11-04T02:55:51.108Z,15.80
2018-11-04T02:58:19.259Z,13.70
2018-11-04T03:00:47.337Z,13.10
2018-11-04T03:03:15.453Z,12.97
2018-11-04T03:05:43.548Z,14.47
2018-11-04T03:08:11.697Z,12.77
2018-11-04T03:10:39.772Z,13.40
2018-11-04T03:13:07.862Z,13.97
2018-11-04T03:15:35.975Z,14.90
2018-11-04T03:18:04.051Z,14.87
2018-11-04T03:20:32.111Z,14.27
2018-11-04T03:23:00.235Z,14.37
2018-11-04T03:25:28.318Z,15.93
2018-11-04T03:27:56.428Z,15.57
2018-11-04T03:30:24.537Z,14.47
2018-11-04T03:32:52.631Z,16.90
2018-11-04T03:35:20.833Z,15.10
2018-11-04T03:37:48.912Z,14.90
2018-11-04T03:40:17.012Z,16.40
2018-11-04T03:42:45.212Z,14.90
2018-11-04T03:45:13.274Z,16.07
2018-11-04T03:47:41.684Z,17.83
2018-11-04T03:50:11.393Z,18.40
2018-11-04T03:52:39.544Z,18.33
2018-11-04T03:55:08.038Z,18.47
2018-11-04T03:57:36.225Z,17.67
2018-11-04T04:00:04.709Z,17.10
2018-11-04T04:02:32.798Z,18.13
2018-11-04T04:05:00.904Z,20.30
2018-11-04T04:07:29.009Z,20.47
2018-11-04T04:09:57.096Z,19.27
2018-11-04T04:12:25.188Z,20.33
2018-11-04T04:14:53.308Z,19.53
2018-11-04T04:17:21.422Z,20.50
2018-11-04T04:19:49.529Z,19.63
2018-11-04T04:22:17.601Z,18.20
2018-11-04T04:24:45.694Z,17.87
2018-11-04T04:27:13.769Z,20.13
2018-11-04T04:29:41.882Z,19.33
2018-11-04T04:32:09.931Z,18.60
2018-11-04T04:34:38.104Z,20.40
2018-11-04T04:37:06.250Z,17.23
2018-11-04T04:39:34.316Z,18.13
2018-11-04T04:42:02.412Z,17.50
2018-11-04T04:44:30.486Z,16.87
2018-11-04T04:46:58.597Z,19.07
2018-11-04T04:49:26.698Z,18.00
2018-11-04T04:51:54.797Z,18.87
2018-11-04T04:54:22.918Z,18.83
2018-11-04T04:56:50.979Z,18.43
2018-11-04T04:59:19.070Z,16.80
2018-11-04T05:01:47.160Z,18.20
2018-11-04T05:04:15.237Z,19.90
2018-11-04T05:06:43.350Z,18.30
2018-11-04T05:09:11.427Z,19.80
2018-11-04T05:11:39.493Z,20.10
2018-11-04T05:14:07.568Z,20.20
2018-11-04T05:16:35.642Z,20.03
2018-11-04T05:19:03.716Z,20.53
2018-11-04T05:21:31.784Z,19.83
2018-11-04T05:23:59.891Z,21.30
2018-11-04T05:26:27.958Z,20.27
2018-11-04T05:28:56.028Z,21.80
2018-11-04T05:31:24.106Z,21.37
2018-11-04T05:33:52.176Z,20.40
2018-11-04T05:36:20.241Z,22.50
2018-11-04T05:38:48.333Z,21.00
2018-11-04T05:41:16.452Z,21.20
2018-11-04T05:43:44.521Z,21.80
2018-11-04T05:46:12.670Z,20.43
2018-11-04T05:48:40.744Z,19.20
2018-11-04T05:51:08.797Z,21.67
2018-11-04T05:53:39.590Z,20.37
2018-11-04T05:56:08.199Z,21.80
2018-11-04T05:58:36.349Z,21.30
2018-11-04T06:01:04.531Z,21.83
2018-11-04T06:03:32.615Z,21.70
2018-11-04T06:06:00.699Z,21.90
2018-11-04T06:08:28.801Z,22.23
2018-11-04T06:10:56.871Z,24.63
2018-11-04T06:13:24.949Z,22.90
2018-11-04T06:15:53.024Z,24.23
2018-11-04T06:18:21.112Z,22.30
2018-11-04T06:20:49.223Z,21.83
2018-11-04T06:23:17.288Z,20.80
2018-11-04T06:25:45.485Z,22.07
2018-11-04T06:28:13.564Z,21.13
2018-11-04T06:30:41.642Z,21.27
2018-11-04T06:33:09.725Z,20.90
2018-11-04T06:35:37.814Z,19.57
2018-11-04T06:38:06.313Z,22.43
2018-11-04T06:40:34.396Z,22.60
2018-11-04T06:43:02.476Z,20.33
2018-11-04T06:45:30.600Z,21.83
2018-11-04T06:47:58.689Z,21.27
2018-11-04T06:50:26.776Z,23.33
2018-11-04T06:52:54.861Z,22.00
2018-11-04T06:55:22.934Z,21.57
2018-11-04T06:57:51.041Z,21.30
2018-11-04T07:00:19.137Z,21.93
2018-11-04T07:02:47.221Z,22.73
2018-11-04T07:05:15.349Z,21.60
2018-11-04T07:07:43.404Z,20.17
2018-11-04T07:10:11.511Z,21.80
2018-11-04T07:12:39.585Z,21.27
2018-11-04T07:15:07.695Z,22.00
2018-11-04T07:17:35.830Z,18.37
2018-11-04T07:20:04.034Z,22.70
2018-11-04T07:22:31.984Z,20.97
2018-11-04T07:25:00.077Z,21.07
2018-11-04T07:27:28.159Z,22.43
2018-11-04T07:29:56.216Z,21.10
2018-11-04T07:32:24.282Z,20.77
2018-11-04T07:34:52.393Z,21.83
2018-11-04T07:37:20.496Z,21.80
2018-11-04T07:39:48.557Z,21.20
2018-11-04T07:42:16.671Z,21.23
2018-11-04T07:44:44.737Z,22.17
2018-11-04T07:47:12.830Z,23.43
2018-11-04T07:49:40.909Z,21.93
2018-11-04T07:52:08.969Z,21.40
2018-11-04T07:54:37.084Z,21.10
2018-11-04T07:57:05.296Z,19.93
2018-11-04T07:59:33.388Z,20.93
2018-11-04T08:02:01.484Z,19.43
2018-11-04T08:04:29.572Z,20.40
2018-11-04T08:06:57.700Z,19.83
2018-11-04T08:09:25.750Z,22.37
2018-11-04T08:11:53.845Z,26.97
2018-11-04T08:14:21.909Z,18.60
2018-11-04T08:16:49.984Z,47.77
2018-11-04T08:19:18.092Z,46.67
2018-11-04T08:21:46.202Z,39.77
2018-11-04T08:24:14.269Z,47.97
2018-11-04T08:26:42.356Z,31.30
2018-11-04T08:29:10.444Z,25.10
2018-11-04T08:31:38.529Z,23.63
2018-11-04T08:34:06.609Z,20.60
2018-11-04T08:36:34.699Z,22.70
2018-11-04T08:39:02.876Z,22.47
2018-11-04T08:41:30.946Z,20.50
2018-11-04T08:43:59.081Z,21.43
2018-11-04T08:46:27.132Z,21.20
2018-11-04T08:48:55.217Z,17.87
2018-11-04T08:51:23.252Z,21.60
2018-11-04T08:53:51.348Z,20.27
2018-11-04T08:56:19.421Z,18.83
2018-11-04T08:58:47.537Z,19.20
2018-11-04T09:01:15.598Z,20.43
2018-11-04T09:03:43.733Z,19.57
2018-11-04T09:06:11.796Z,19.40
2018-11-04T09:08:39.947Z,18.83
2018-11-04T09:11:08.161Z,18.17
2018-11-04T09:13:36.261Z,19.40
2018-11-04T09:16:04.339Z,18.77
2018-11-04T09:18:32.438Z,19.43
2018-11-04T09:21:00.538Z,19.20
2018-11-04T09:23:28.651Z,19.20
2018-11-04T09:25:56.745Z,19.20
2018-11-04T09:28:24.849Z,17.50
2018-11-04T09:30:52.945Z,19.13
2018-11-04T09:33:21.025Z,18.40
2018-11-04T09:35:49.293Z,19.73
2018-11-04T09:38:17.241Z,20.87
2018-11-04T09:40:45.345Z,17.97
2018-11-04T09:43:13.418Z,17.90
2018-11-04T09:45:41.515Z,16.87
2018-11-04T09:48:09.599Z,19.97
2018-11-04T09:50:37.681Z,18.13
2018-11-04T09:53:06.034Z,17.23
2018-11-04T09:55:34.112Z,18.97
2018-11-04T09:58:02.241Z,17.83
2018-11-04T10:00:30.308Z,18.50
2018-11-04T10:02:58.452Z,16.77
2018-11-04T10:05:26.525Z,16.87
2018-11-04T10:07:54.626Z,16.97
2018-11-04T10:10:22.754Z,15.70
2018-11-04T10:12:50.845Z,17.63
2018-11-04T10:15:18.941Z,17.37
2018-11-04T10:17:47.024Z,16.90
2018-11-04T10:20:15.691Z,17.87
2018-11-04T10:22:43.278Z,14.30
2018-11-04T10:25:12.673Z,17.53
2018-11-04T10:27:41.541Z,17.20
2018-11-04T10:30:12.446Z,16.63
2018-11-04T10:32:40.477Z,16.23
2018-11-04T10:35:09.452Z,16.10
2018-11-04T10:37:38.148Z,15.67
2018-11-04T10:40:07.673Z,14.93
2018-11-04T10:42:35.759Z,14.10
2018-11-04T10:45:04.304Z,14.30
2018-11-04T10:47:32.376Z,13.20
2018-11-04T10:50:00.611Z,16.53
2018-11-04T10:52:28.641Z,15.93
2018-11-04T10:54:56.744Z,15.80
2018-11-04T10:57:24.920Z,13.63
2018-11-04T10:59:53.031Z,14.40
2018-11-04T11:02:21.184Z,15.47
2018-11-04T11:04:49.270Z,13.73
2018-11-04T11:07:17.372Z,14.37
2018-11-04T11:09:45.438Z,13.53
2018-11-04T11:12:13.520Z,13.40
2018-11-04T11:14:41.576Z,14.50
2018-11-04T11:17:09.670Z,13.87
2018-11-04T11:19:37.798Z,15.93
2018-11-04T11:22:05.870Z,15.63
2018-11-04T11:24:33.954Z,15.00
2018-11-04T11:27:02.048Z,15.57
2018-11-04T11:29:30.157Z,14.40
2018-11-04T11:31:58.266Z,14.13
2018-11-04T11:34:26.430Z,13.33
2018-11-04T11:36:54.523Z,15.60
2018-11-04T11:39:22.606Z,13.83
2018-11-04T11:41:50.741Z,14.40
2018-11-04T11:44:18.877Z,15.43
2018-11-04T11:46:47.000Z,15.57
2018-11-04T11:49:15.168Z,15.93
2018-11-04T11:51:43.265Z,15.73
2018-11-04T11:54:11.451Z,18.60
2018-11-04T11:56:39.617Z,16.53
2018-11-04T11:59:07.734Z,15.30
2018-11-04T12:01:35.796Z,16.70
2018-11-04T12:04:03.955Z,16.87
2018-11-04T12:06:32.027Z,15.37
2018-11-04T12:09:00.156Z,15.93
2018-11-04T12:11:28.462Z,14.70
2018-11-04T12:13:56.641Z,14.23
2018-11-04T12:16:24.765Z,14.70
2018-11-04T12:18:52.844Z,14.97
2018-11-04T12:21:20.964Z,13.60
2018-11-04T12:23:49.140Z,15.20
2018-11-04T12:26:17.135Z,15.80
2018-11-04T12:28:45.213Z,14.20
2018-11-04T12:31:13.328Z,15.63
2018-11-04T12:33:41.416Z,14.57
2018-11-04T12:36:09.521Z,13.40
2018-11-04T12:38:37.622Z,15.17
2018-11-04T12:41:06.085Z,15.93
2018-11-04T12:43:34.184Z,15.20
2018-11-04T12:46:02.287Z,15.30
2018-11-04T12:48:30.357Z,14.20
2018-11-04T12:50:58.484Z,15.17
2018-11-04T12:53:26.651Z,14.40
2018-11-04T12:55:54.820Z,14.57
2018-11-04T12:58:22.952Z,14.10
2018-11-04T13:00:51.041Z,18.70
2018-11-04T13:03:19.161Z,14.53
2018-11-04T13:05:47.277Z,14.10
2018-11-04T13:08:15.370Z,14.70
2018-11-04T13:10:43.490Z,13.60
2018-11-04T13:13:11.571Z,13.50
2018-11-04T13:15:39.721Z,15.80
2018-11-04T13:18:07.843Z,13.87
2018-11-04T13:20:35.913Z,14.30
2018-11-04T13:23:04.421Z,15.80
2018-11-04T13:25:32.486Z,16.90
2018-11-04T13:28:00.578Z,16.03
2018-11-04T13:30:28.681Z,16.10
2018-11-04T13:32:56.773Z,18.97
2018-11-04T13:35:24.906Z,14.60
2018-11-04T13:37:53.028Z,14.73
2018-11-04T13:40:21.151Z,17.53
2018-11-04T13:42:49.331Z,15.00
2018-11-04T13:45:17.430Z,14.40
2018-11-04T13:47:45.544Z,15.10
2018-11-04T13:50:14.644Z,16.10
2018-11-04T13:52:43.257Z,14.90
2018-11-04T13:55:11.352Z,14.90
2018-11-04T13:57:40.104Z,14.57
2018-11-04T14:00:11.860Z,15.10
2018-11-04T14:02:39.984Z,17.93
2018-11-04T14:05:08.846Z,16.07
2018-11-04T14:07:37.088Z,16.83
2018-11-04T14:10:06.104Z,16.00
2018-11-04T14:12:34.201Z,19.23
2018-11-04T14:15:02.423Z,17.97
2018-11-04T14:17:30.460Z,17.07
2018-11-04T14:19:58.877Z,16.20
2018-11-04T14:22:27.026Z,14.80
2018-11-04T14:24:55.227Z,14.30
2018-11-04T14:27:23.399Z,15.43
2018-11-04T14:29:51.495Z,13.10
2018-11-04T14:32:19.651Z,13.10
2018-11-04T14:34:47.752Z,15.77
2018-11-04T14:37:15.848Z,15.00
2018-11-04T14:39:43.948Z,14.50
2018-11-04T14:42:12.072Z,15.67
2018-11-04T14:44:40.141Z,14.90
2018-11-04T14:47:08.245Z,16.53
2018-11-04T14:49:36.356Z,17.33
2018-11-04T14:52:04.684Z,15.00
2018-11-04T14:54:32.828Z,13.53
2018-11-04T14:57:00.975Z,15.20
2018-11-04T14:59:29.093Z,16.10
2018-11-04T15:01:57.344Z,14.97
2018-11-04T15:04:25.431Z,13.30
2018-11-04T15:06:53.496Z,14.60
2018-11-04T15:09:21.563Z,13.90
2018-11-04T15:11:49.682Z,15.80
2018-11-04T15:14:17.789Z,14.30
2018-11-04T15:16:45.872Z,14.80
2018-11-04T15:19:13.981Z,13.23
2018-11-04T15:21:42.070Z,15.27
2018-11-04T15:24:10.166Z,11.37
2018-11-04T15:26:38.299Z,11.40
2018-11-04T15:29:06.366Z,13.73
2018-11-04T15:31:34.440Z,13.47
2018-11-04T15:34:02.632Z,14.00
2018-11-04T15:36:30.629Z,15.30
2018-11-04T15:38:58.738Z,13.77
2018-11-04T15:41:26.961Z,12.50
2018-11-04T15:43:55.051Z,15.87
2018-11-04T15:46:23.203Z,16.40
2018-11-04T15:48:51.311Z,13.17
2018-11-04T15:51:19.370Z,14.20
2018-11-04T15:53:47.441Z,14.23
2018-11-04T15:56:15.500Z,13.27
2018-11-04T15:58:43.588Z,14.23
2018-11-04T16:01:11.664Z,12.57
2018-11-04T16:03:39.762Z,13.63
2018-11-04T16:06:07.854Z,11.30
2018-11-04T16:08:35.929Z,12.57
2018-11-04T16:11:04.001Z,14.90
2018-11-04T16:13:32.101Z,13.10
2018-11-04T16:16:00.169Z,10.90
2018-11-04T16:18:28.401Z,10.40
2018-11-04T16:20:56.372Z,10.40
2018-11-04T16:23:24.466Z,11.20
2018-11-04T16:25:52.553Z,13.47
2018-11-04T16:28:20.709Z,10.97
2018-11-04T16:30:48.801Z,10.30
2018-11-04T16:33:16.930Z,9.00
2018-11-04T16:35:45.209Z,11.90
2018-11-04T16:38:13.333Z,10.70
2018-11-04T16:40:41.442Z,11.17
2018-11-04T16:43:09.648Z,11.73
2018-11-04T16:45:37.729Z,10.50
2018-11-04T16:48:05.898Z,11.77
2018-11-04T16:50:34.066Z,10.50
2018-11-04T16:53:02.219Z,10.17
2018-11-04T16:55:30.354Z,11.53
2018-11-04T16:57:58.432Z,12.40
2018-11-04T17:00:26.518Z,11.33
2018-11-04T17:02:54.663Z,10.63
2018-11-04T17:05:22.939Z,12.30
2018-11-04T17:07:50.897Z,12.83
2018-11-04T17:10:19.010Z,12.80
2018-11-04T17:12:47.107Z,12.40
2018-11-04T17:15:15.797Z,12.70
2018-11-04T17:17:44.269Z,12.97
2018-11-04T17:20:16.279Z,16.50
2018-11-04T17:22:44.727Z,14.60
2018-11-04T17:25:13.054Z,13.23
2018-11-04T17:27:41.282Z,13.63
2018-11-04T17:30:13.711Z,12.87
2018-11-04T17:32:41.904Z,12.73
2018-11-04T17:35:11.563Z,14.30
2018-11-04T17:37:40.083Z,12.73
2018-11-04T17:40:10.338Z,14.07
2018-11-04T17:42:38.561Z,13.53
2018-11-04T17:45:08.015Z,15.40
2018-11-04T17:47:36.533Z,12.50
2018-11-04T17:50:04.859Z,12.77
2018-11-04T17:52:33.012Z,14.17
2018-11-04T17:55:01.082Z,13.40
2018-11-04T17:57:29.274Z,13.83
2018-11-04T17:59:57.341Z,13.00
2018-11-04T18:02:25.449Z,14.33
2018-11-04T18:04:53.565Z,13.30
2018-11-04T18:07:21.659Z,13.77
2018-11-04T18:09:49.799Z,14.03
2018-11-04T18:12:17.976Z,17.10
2018-11-04T18:14:46.087Z,13.30
2018-11-04T18:17:14.192Z,15.00
2018-11-04T18:19:42.258Z,14.83
2018-11-04T18:22:10.329Z,14.97
2018-11-04T18:24:38.428Z,13.03
2018-11-04T18:27:06.582Z,12.70
2018-11-04T18:29:34.718Z,12.10
2018-11-04T18:32:02.808Z,14.00
2018-11-04T18:34:30.925Z,14.97
2018-11-04T18:36:59.056Z,12.60
2018-11-04T18:39:27.137Z,12.50
2018-11-04T18:41:55.228Z,14.07
2018-11-04T18:44:23.463Z,15.40
2018-11-04T18:46:51.491Z,13.80
2018-11-04T18:49:19.736Z,14.73
2018-11-04T18:51:47.758Z,19.90
2018-11-04T18:54:15.882Z,13.80
2018-11-04T18:56:44.023Z,14.50
2018-11-04T18:59:12.161Z,16.53
2018-11-04T19:01:40.226Z,15.23
2018-11-04T19:04:08.329Z,16.70
2018-11-04T19:06:36.424Z,17.40
2018-11-04T19:09:06.584Z,15.53
2018-11-04T19:11:34.775Z,15.40
2018-11-04T19:14:02.836Z,17.50
2018-11-04T19:16:31.164Z,18.47
2018-11-04T19:18:59.456Z,17.50
2018-11-04T19:21:27.459Z,17.83
2018-11-04T19:23:55.555Z,18.40
2018-11-04T19:26:23.657Z,16.33
2018-11-04T19:28:51.775Z,15.10
2018-11-04T19:31:20.079Z,14.67
2018-11-04T19:33:48.018Z,16.23
2018-11-04T19:36:16.158Z,17.70
2018-11-04T19:38:44.666Z,15.70
2018-11-04T19:41:12.743Z,14.23
2018-11-04T19:43:40.868Z,15.20
2018-11-04T19:46:09.038Z,14.30
2018-11-04T19:48:37.203Z,15.30
2018-11-04T19:51:05.644Z,14.00
2018-11-04T19:53:33.705Z,14.43
2018-11-04T19:56:01.819Z,13.50
2018-11-04T19:58:29.925Z,13.50
2018-11-04T20:00:58.024Z,12.70
2018-11-04T20:03:26.100Z,13.80
2018-11-04T20:05:54.220Z,13.40
2018-11-04T20:08:22.423Z,12.27
2018-11-04T20:10:50.518Z,13.90
2018-11-04T20:13:23.982Z,14.00
2018-11-04T20:15:51.996Z,12.50
2018-11-04T20:18:25.408Z,11.33
2018-11-04T20:20:53.497Z,13.27
2018-11-04T20:23:21.582Z,13.50
2018-11-04T20:25:55.130Z,13.10
2018-11-04T20:28:23.268Z,11.10
2018-11-04T20:30:51.345Z,13.40
2018-11-04T20:33:19.659Z,11.87
2018-11-04T20:35:47.811Z,11.07
2018-11-04T20:38:15.813Z,11.60
2018-11-04T20:40:49.369Z,12.20
2018-11-04T20:43:17.508Z,12.63
2018-11-04T20:45:45.782Z,12.93
2018-11-04T20:48:19.283Z,11.30
2018-11-04T20:50:52.786Z,11.37
2018-11-04T20:53:20.898Z,12.33
2018-11-04T20:55:54.272Z,11.90
2018-11-04T20:58:22.562Z,12.20
2018-11-04T21:00:50.516Z,13.43
2018-11-04T21:03:18.652Z,12.77
2018-11-04T21:05:46.809Z,22.37
2018-11-04T21:08:15.112Z,25.70
2018-11-04T21:10:43.217Z,18.93
2018-11-04T21:13:11.297Z,16.67
2018-11-04T21:15:39.383Z,16.70
2018-11-04T21:18:07.464Z,16.57
2018-11-04T21:20:35.571Z,30.27
2018-11-04T21:23:03.706Z,45.77
2018-11-04T21:25:32.224Z,17.80
2018-11-04T21:28:00.140Z,11.27
2018-11-04T21:30:28.113Z,13.00
2018-11-04T21:32:56.219Z,11.90
2018-11-04T21:35:24.366Z,11.77
2018-11-04T21:37:52.527Z,11.77
2018-11-04T21:40:20.788Z,12.37
2018-11-04T21:42:49.821Z,12.70
2018-11-04T21:45:17.682Z,13.20
2018-11-04T21:47:46.168Z,12.97
2018-11-04T21:50:14.425Z,12.20
2018-11-04T21:52:42.689Z,13.00
2018-11-04T21:55:12.367Z,12.53
2018-11-04T21:57:41.454Z,12.80
2018-11-04T22:00:11.431Z,11.93
2018-11-04T22:02:39.671Z,12.97
2018-11-04T22:05:08.388Z,12.83
2018-11-04T22:07:36.566Z,11.27
2018-11-04T22:10:06.519Z,13.70
2018-11-04T22:12:34.687Z,12.10
2018-11-04T22:15:02.770Z,9.57
2018-11-04T22:17:30.971Z,12.03
2018-11-04T22:19:59.226Z,11.53
2018-11-04T22:22:27.365Z,11.97
2018-11-04T22:24:55.453Z,12.03
2018-11-04T22:27:23.564Z,13.57
2018-11-04T22:29:51.670Z,14.10
2018-11-04T22:32:19.771Z,12.93
2018-11-04T22:34:47.870Z,12.87
2018-11-04T22:37:15.944Z,13.63
2018-11-04T22:39:44.058Z,14.37
2018-11-04T22:42:12.271Z,13.00
2018-11-04T22:44:40.310Z,12.17
2018-11-04T22:47:08.405Z,14.73
2018-11-04T22:49:36.537Z,12.77
2018-11-04T22:52:05.107Z,13.20
2018-11-04T22:54:33.260Z,13.60
2018-11-04T22:57:01.516Z,14.03
2018-11-04T22:59:29.584Z,13.70
2018-11-04T23:01:57.737Z,13.20
2018-11-04T23:04:31.175Z,12.40
2018-11-04T23:06:59.270Z,11.50
2018-11-04T23:09:27.400Z,13.00
2018-11-04T23:11:55.513Z,16.27
2018-11-04T23:14:23.620Z,18.07
2018-11-04T23:16:51.700Z,16.10
2018-11-04T23:19:19.793Z,16.97
2018-11-04T23:21:47.895Z,14.63
2018-11-04T23:24:15.960Z,14.80
2018-11-04T23:26:44.082Z,14.33
2018-11-04T23:29:12.153Z,12.30
2018-11-04T23:31:40.259Z,12.43
2018-11-04T23:34:08.354Z,13.20
2018-11-04T23:36:36.545Z,12.17
2018-11-04T23:39:06.641Z,12.47
2018-11-04T23:41:34.749Z,13.20
2018-11-04T23:44:02.815Z,11.20
2018-11-04T23:46:30.891Z,12.73
2018-11-04T23:48:59.008Z,13.33
2018-11-04T23:51:27.126Z,12.53
2018-11-04T23:53:55.193Z,13.20
2018-11-04T23:56:23.282Z,13.47
2018-11-04T23:58:51.584Z,11.73
